Time;durP1;ratioP1;P1;durP2;ratioP2;P2;SDS_P1;SDS_P2;PMS_P1;PMS_P2;Temp;Humidity;BMP_temperature;BMP_pressure;BME280_temperature;BME280_humidity;BME280_pressure;Samples;Min_cycle;Max_cycle;Signal;HPM_P1;HPM_P2
2021/05/18 00:00:08;;;;;;;23.77;11.30;;;;;;;;;;4986969;28;37971;-77
2021/05/18 00:02:34;;;;;;;22.13;11.95;;;;;;;;;;5005344;28;49198;-77
2021/05/18 00:05:01;;;;;;;27.33;13.55;;;;;;;;;;5006788;28;39930;-77
2021/05/18 00:07:27;;;;;;;30.58;15.25;;;;;;;;;;5003601;28;50374;-77
2021/05/18 00:12:39;;;;;;;24.88;15.98;;;;;;;;;;4999435;28;48373;-77
2021/05/18 00:15:09;;;;;;;28.52;16.90;;;;;;;;;;5004268;28;41367;-77
2021/05/18 00:17:35;;;;;;;25.00;16.20;;;;;;;;;;5006426;28;37141;-77
2021/05/18 00:20:05;;;;;;;35.17;17.88;;;;;;;;;;4985649;28;37818;-78
2021/05/18 00:22:32;;;;;;;30.45;17.70;;;;;;;;;;5003199;28;48888;-78
2021/05/18 00:24:58;;;;;;;32.00;18.42;;;;;;;;;;5012944;28;38849;-78
2021/05/18 00:27:25;;;;;;;35.47;18.20;;;;;;;;;;5008058;28;37342;-77
2021/05/18 00:29:51;;;;;;;36.65;18.75;;;;;;;;;;5011678;28;38997;-77
2021/05/18 00:32:18;;;;;;;36.58;19.20;;;;;;;;;;5007994;28;38942;-77
2021/05/18 00:34:44;;;;;;;43.25;20.42;;;;;;;;;;4988140;28;39088;-76
2021/05/18 00:37:10;;;;;;;36.72;19.80;;;;;;;;;;4991499;28;37459;-77
2021/05/18 00:39:37;;;;;;;33.70;19.63;;;;;;;;;;5008900;28;38604;-78
2021/05/18 00:42:13;;;;;;;40.25;22.45;;;;;;;;;;4987990;28;38972;-77
2021/05/18 00:44:41;;;;;;;33.17;21.38;;;;;;;;;;5003957;28;39646;-77
2021/05/18 00:47:08;;;;;;;36.00;21.80;;;;;;;;;;4986857;28;40150;-77
2021/05/18 00:49:35;;;;;;;34.30;23.13;;;;;;;;;;4996229;28;38607;-78
2021/05/18 00:52:02;;;;;;;38.63;22.27;;;;;;;;;;4993962;28;40075;-78
2021/05/18 00:54:36;;;;;;;37.88;22.55;;;;;;;;;;4989579;28;47406;-77
2021/05/18 00:59:48;;;;;;;47.63;27.77;;;;;;;;;;5002344;28;40256;-78
2021/05/18 01:02:15;;;;;;;43.65;25.30;;;;;;;;;;4982414;28;37875;-78
2021/05/18 01:04:43;;;;;;;42.45;25.20;;;;;;;;;;4990037;28;39232;-78
2021/05/18 01:07:10;;;;;;;33.90;21.83;;;;;;;;;;5005354;28;37350;-78
2021/05/18 01:09:37;;;;;;;43.72;27.85;;;;;;;;;;5008502;28;40308;-78
2021/05/18 01:12:04;;;;;;;43.13;26.60;;;;;;;;;;4984605;28;39744;-78
2021/05/18 01:14:30;;;;;;;37.55;23.00;;;;;;;;;;5006686;28;40018;-77
2021/05/18 01:16:57;;;;;;;38.83;24.25;;;;;;;;;;4988935;28;37664;-77
2021/05/18 01:19:24;;;;;;;39.20;22.75;;;;;;;;;;4985820;28;39526;-77
2021/05/18 01:21:52;;;;;;;47.50;26.35;;;;;;;;;;4987156;28;39434;-77
2021/05/18 01:24:19;;;;;;;32.60;24.23;;;;;;;;;;5007560;28;37762;-77
2021/05/18 01:26:46;;;;;;;57.88;29.48;;;;;;;;;;4988494;28;38048;-77
2021/05/18 01:29:13;;;;;;;40.35;25.00;;;;;;;;;;4983001;28;39884;-78
2021/05/18 01:31:40;;;;;;;49.20;27.60;;;;;;;;;;5001679;28;40449;-77
2021/05/18 01:34:07;;;;;;;36.95;22.70;;;;;;;;;;4982964;28;39692;-77
2021/05/18 01:36:34;;;;;;;51.33;29.55;;;;;;;;;;4980193;28;37984;-78
2021/05/18 01:39:09;;;;;;;35.88;22.08;;;;;;;;;;4988083;28;38828;-78
2021/05/18 01:44:21;;;;;;;43.00;25.95;;;;;;;;;;4991313;28;39166;-78
2021/05/18 01:46:48;;;;;;;50.10;27.70;;;;;;;;;;4996026;28;37236;-78
2021/05/18 01:49:16;;;;;;;40.83;24.17;;;;;;;;;;5005004;28;37446;-78
2021/05/18 01:51:47;;;;;;;46.58;25.95;;;;;;;;;;5005139;28;39311;-78
2021/05/18 01:54:17;;;;;;;29.92;21.35;;;;;;;;;;5005883;28;38610;-78
2021/05/18 01:59:30;;;;;;;31.30;20.60;;;;;;;;;;4999859;28;50138;-79
2021/05/18 02:01:58;;;;;;;28.90;17.92;;;;;;;;;;4991011;28;37656;-78
2021/05/18 02:04:34;;;;;;;34.97;22.40;;;;;;;;;;4989122;28;38535;-77
2021/05/18 02:07:02;;;;;;;24.17;17.63;;;;;;;;;;4986259;28;36092;-77
2021/05/18 02:09:28;;;;;;;26.02;17.48;;;;;;;;;;5005745;28;48089;-77
2021/05/18 02:11:55;;;;;;;39.30;21.75;;;;;;;;;;5007029;28;39984;-77
2021/05/18 02:14:32;;;;;;;29.02;18.75;;;;;;;;;;5007408;28;38947;-77
2021/05/18 02:17:17;;;;;;;40.75;23.77;;;;;;;;;;5010875;28;37231;-77
2021/05/18 02:24:38;;;;;;;23.13;14.93;;;;;;;;;;5012335;28;39379;-78
2021/05/18 02:25:10;;;;;;;23.65;17.10;;;;;;;;;;5024731;28;38867;-76
2021/05/18 02:27:36;;;;;;;18.65;14.68;;;;;;;;;;5019208;28;37612;-77
2021/05/18 02:30:04;;;;;;;21.92;14.85;;;;;;;;;;4996604;28;38083;-77
2021/05/18 02:32:31;;;;;;;23.23;16.30;;;;;;;;;;5005921;28;48591;-77
2021/05/18 02:34:57;;;;;;;25.35;15.30;;;;;;;;;;4988003;28;37954;-78
2021/05/18 02:37:24;;;;;;;29.00;17.77;;;;;;;;;;4991540;28;36504;-77
2021/05/18 02:39:51;;;;;;;20.55;14.95;;;;;;;;;;4996581;28;38851;-78
2021/05/18 02:42:17;;;;;;;22.90;15.27;;;;;;;;;;4990583;28;38016;-77
2021/05/18 02:44:58;;;;;;;29.75;15.93;;;;;;;;;;5005786;28;38880;-77
2021/05/18 02:50:12;;;;;;;21.27;15.55;;;;;;;;;;5014976;28;40002;-79
2021/05/18 02:52:40;;;;;;;23.38;15.82;;;;;;;;;;5012345;28;39109;-77
2021/05/18 02:55:10;;;;;;;26.30;17.33;;;;;;;;;;4996145;28;20046;-77
2021/05/18 02:57:38;;;;;;;23.15;16.20;;;;;;;;;;5004353;28;37695;-76
2021/05/18 03:00:06;;;;;;;24.67;16.52;;;;;;;;;;4991731;28;37891;-76
2021/05/18 03:02:33;;;;;;;27.70;17.40;;;;;;;;;;4990977;28;47364;-77
2021/05/18 03:04:59;;;;;;;22.25;16.10;;;;;;;;;;4994161;28;37633;-77
2021/05/18 03:07:26;;;;;;;30.40;19.52;;;;;;;;;;5010817;28;36701;-77
2021/05/18 03:09:52;;;;;;;29.38;16.98;;;;;;;;;;4992196;28;37630;-77
2021/05/18 03:12:18;;;;;;;23.35;16.35;;;;;;;;;;5010946;28;38918;-77
2021/05/18 03:14:45;;;;;;;28.90;18.15;;;;;;;;;;5006035;28;39052;-78
2021/05/18 03:17:11;;;;;;;24.42;17.35;;;;;;;;;;4988881;28;37001;-78
2021/05/18 03:19:38;;;;;;;30.17;20.20;;;;;;;;;;4988872;28;37902;-77
2021/05/18 03:22:04;;;;;;;27.10;17.13;;;;;;;;;;4988989;28;38177;-77
2021/05/18 03:24:30;;;;;;;27.40;18.30;;;;;;;;;;5010205;28;38243;-77
2021/05/18 03:26:57;;;;;;;29.38;19.55;;;;;;;;;;5002283;28;34554;-77
2021/05/18 03:29:26;;;;;;;22.02;15.57;;;;;;;;;;4992655;28;37537;-77
2021/05/18 03:34:38;;;;;;;25.40;17.98;;;;;;;;;;5003608;28;49722;-77
2021/05/18 03:37:12;;;;;;;30.23;17.05;;;;;;;;;;5007577;28;37149;-78
2021/05/18 03:39:39;;;;;;;22.40;15.57;;;;;;;;;;5008193;28;39975;-78
2021/05/18 03:42:13;;;;;;;24.95;16.25;;;;;;;;;;5004749;28;39437;-77
2021/05/18 03:45:29;;;;;;;21.27;14.32;;;;;;;;;;5004406;28;38165;-77
2021/05/18 03:58:55;;;;;;;23.23;16.38;;;;;;;;;;4958743;28;37630;-77
2021/05/18 04:17:30;;;;;;;25.15;15.48;;;;;;;;;;4998552;28;49988;-78
2021/05/18 04:20:19;;;;;;;26.97;15.90;;;;;;;;;;5009561;28;34671;-78
2021/05/18 04:39:09;;;;;;;27.23;18.20;;;;;;;;;;5008010;28;38975;-78
2021/05/18 04:41:50;;;;;;;29.02;18.52;;;;;;;;;;5005044;28;49437;-78
2021/05/18 04:52:21;;;;;;;24.83;17.50;;;;;;;;;;5009666;28;38351;-77
2021/05/18 05:16:14;;;;;;;17.63;13.13;;;;;;;;;;4989339;28;39422;-77
2021/05/18 05:18:41;;;;;;;21.83;13.55;;;;;;;;;;4991011;28;35771;-77
2021/05/18 05:21:08;;;;;;;20.47;12.80;;;;;;;;;;5007081;28;38208;-77
2021/05/18 05:23:35;;;;;;;21.85;13.20;;;;;;;;;;4990368;28;37239;-77
2021/05/18 05:26:01;;;;;;;18.25;13.75;;;;;;;;;;4990152;28;37384;-77
2021/05/18 05:28:27;;;;;;;17.98;12.45;;;;;;;;;;4995277;28;47604;-77
2021/05/18 05:30:54;;;;;;;19.98;13.25;;;;;;;;;;4991034;28;38918;-76
2021/05/18 05:33:20;;;;;;;19.17;12.02;;;;;;;;;;5007509;28;38304;-77
2021/05/18 05:35:47;;;;;;;18.63;12.27;;;;;;;;;;5006285;28;39494;-77
2021/05/18 05:38:17;;;;;;;17.02;10.70;;;;;;;;;;5014775;28;39482;-78
2021/05/18 05:40:44;;;;;;;16.13;11.60;;;;;;;;;;4987216;28;38751;-78
2021/05/18 05:43:10;;;;;;;17.60;10.85;;;;;;;;;;5007620;28;37034;-78
2021/05/18 05:45:36;;;;;;;16.60;11.90;;;;;;;;;;4987695;28;39864;-77
2021/05/18 05:48:03;;;;;;;13.88;10.60;;;;;;;;;;5005525;28;39477;-77
2021/05/18 05:50:30;;;;;;;22.90;12.18;;;;;;;;;;5002612;28;39047;-77
2021/05/18 05:52:56;;;;;;;17.02;10.90;;;;;;;;;;5000821;28;37063;-78
2021/05/18 05:55:23;;;;;;;19.48;12.15;;;;;;;;;;4998534;28;39383;-77
2021/05/18 05:57:49;;;;;;;15.00;10.52;;;;;;;;;;4998477;28;39816;-77
2021/05/18 06:00:16;;;;;;;18.35;12.10;;;;;;;;;;4982122;28;37619;-76
2021/05/18 06:02:42;;;;;;;15.35;11.05;;;;;;;;;;4986087;28;36629;-76
2021/05/18 06:05:08;;;;;;;14.07;10.50;;;;;;;;;;5000050;28;38780;-76
2021/05/18 06:07:35;;;;;;;19.40;11.35;;;;;;;;;;5004322;28;39054;-76
2021/05/18 06:10:09;;;;;;;18.40;11.48;;;;;;;;;;5001270;28;38553;-76
2021/05/18 06:12:49;;;;;;;18.25;11.05;;;;;;;;;;4997293;28;47479;-77
2021/05/18 06:42:28;;;;;;;10.43;7.40;;;;;;;;;;4998176;28;37946;-77
2021/05/18 06:47:40;;;;;;;9.05;6.85;;;;;;;;;;4995939;28;49606;-77
2021/05/18 06:52:40;;;;;;;11.45;6.82;;;;;;;;;;5000220;28;39054;-77
2021/05/18 06:55:14;;;;;;;11.48;7.20;;;;;;;;;;5003277;28;37767;-77
2021/05/18 06:57:43;;;;;;;8.63;6.20;;;;;;;;;;4982000;28;37982;-77
2021/05/18 07:00:18;;;;;;;10.90;6.15;;;;;;;;;;5001225;28;38792;-75
2021/05/18 07:02:45;;;;;;;8.50;6.20;;;;;;;;;;4987335;28;38104;-75
2021/05/18 07:10:28;;;;;;;12.07;6.40;;;;;;;;;;4990847;28;49146;-76
2021/05/18 07:12:55;;;;;;;11.63;6.80;;;;;;;;;;4998339;28;39061;-76
2021/05/18 07:15:21;;;;;;;11.57;6.80;;;;;;;;;;5006238;28;36524;-75
2021/05/18 07:17:48;;;;;;;8.85;6.22;;;;;;;;;;4982942;28;36392;-75
2021/05/18 07:20:14;;;;;;;8.88;6.10;;;;;;;;;;4994985;28;39403;-76
2021/05/18 07:22:41;;;;;;;10.15;5.63;;;;;;;;;;4978118;28;38428;-76
2021/05/18 07:25:08;;;;;;;9.98;5.45;;;;;;;;;;4978810;28;35914;-77
2021/05/18 07:27:34;;;;;;;9.57;5.50;;;;;;;;;;4985246;28;39441;-77
2021/05/18 07:30:00;;;;;;;7.88;5.30;;;;;;;;;;4975403;28;37816;-78
2021/05/18 07:32:27;;;;;;;9.18;5.38;;;;;;;;;;4994913;28;39177;-78
2021/05/18 07:34:55;;;;;;;8.65;5.03;;;;;;;;;;4993649;28;36863;-77
2021/05/18 07:37:22;;;;;;;7.20;4.43;;;;;;;;;;4981055;28;37882;-78
2021/05/18 07:39:48;;;;;;;11.25;5.03;;;;;;;;;;4981857;28;38043;-79
2021/05/18 07:42:15;;;;;;;7.45;4.75;;;;;;;;;;4987621;28;38597;-78
2021/05/18 07:44:42;;;;;;;7.78;4.32;;;;;;;;;;4989469;28;37245;-77
2021/05/18 07:47:08;;;;;;;7.97;4.53;;;;;;;;;;4972625;28;39239;-78
2021/05/18 07:49:38;;;;;;;10.73;4.70;;;;;;;;;;4997530;28;40397;-77
2021/05/18 08:05:49;;;;;;;8.95;5.68;;;;;;;;;;5001931;28;37806;-76
2021/05/18 08:08:17;;;;;;;7.90;4.38;;;;;;;;;;4996347;28;39012;-76
2021/05/18 08:10:52;;;;;;;5.85;4.65;;;;;;;;;;4982001;28;39440;-78
2021/05/18 08:13:22;;;;;;;7.18;4.40;;;;;;;;;;4982282;28;37765;-76
2021/05/18 08:16:30;;;;;;;6.03;4.07;;;;;;;;;;5009298;28;37139;-77
2021/05/18 10:36:38;;;;;;;3.45;2.70;;;;;;;;;;4999403;28;39712;-77
2021/05/18 10:39:15;;;;;;;5.50;2.92;;;;;;;;;;5005548;28;37704;-79
2021/05/18 10:41:42;;;;;;;3.97;2.25;;;;;;;;;;4995171;28;38711;-78
2021/05/18 10:44:08;;;;;;;5.25;2.42;;;;;;;;;;4996060;28;38482;-78
2021/05/18 10:46:47;;;;;;;3.15;2.10;;;;;;;;;;4988980;28;38863;-78
2021/05/18 10:49:14;;;;;;;4.03;2.30;;;;;;;;;;4989144;28;37417;-77
2021/05/18 10:51:43;;;;;;;5.55;2.50;;;;;;;;;;5004939;28;38719;-77
2021/05/18 10:54:12;;;;;;;6.45;2.60;;;;;;;;;;4986408;28;40107;-77
2021/05/18 10:56:59;;;;;;;5.80;2.60;;;;;;;;;;4986740;28;37391;-77
2021/05/18 10:59:28;;;;;;;9.30;2.05;;;;;;;;;;5006092;28;37445;-78
2021/05/18 11:02:05;;;;;;;3.40;1.95;;;;;;;;;;4978757;28;39946;-78
2021/05/18 11:04:32;;;;;;;5.82;3.00;;;;;;;;;;5000739;28;49226;-78
2021/05/18 11:06:59;;;;;;;6.32;2.70;;;;;;;;;;5005152;28;38642;-78
2021/05/18 11:09:26;;;;;;;6.05;2.22;;;;;;;;;;4985700;28;37304;-78
2021/05/18 11:12:03;;;;;;;4.72;2.50;;;;;;;;;;4978179;28;39294;-78
2021/05/18 11:14:33;;;;;;;4.00;1.80;;;;;;;;;;4989167;28;47353;-78
2021/05/18 11:17:08;;;;;;;5.47;2.00;;;;;;;;;;4979421;28;37849;-77
2021/05/18 11:19:44;;;;;;;2.15;1.60;;;;;;;;;;4998802;28;47670;-78
2021/05/18 11:22:11;;;;;;;6.20;2.08;;;;;;;;;;4998525;28;40773;-78
2021/05/18 11:24:46;;;;;;;8.18;2.25;;;;;;;;;;4979001;28;39219;-76
2021/05/18 11:27:13;;;;;;;7.78;2.10;;;;;;;;;;4984985;28;38509;-78
2021/05/18 11:29:40;;;;;;;6.65;1.80;;;;;;;;;;4999574;28;37057;-78
2021/05/18 11:32:09;;;;;;;3.95;1.88;;;;;;;;;;4965510;28;40108;-78
2021/05/18 11:34:57;;;;;;;2.83;1.33;;;;;;;;;;4981343;28;39133;-77
2021/05/18 11:37:28;;;;;;;5.07;1.50;;;;;;;;;;4977149;28;40764;-76
2021/05/18 11:40:13;;;;;;;2.28;1.00;;;;;;;;;;4956155;28;36893;-76
2021/05/18 11:42:39;;;;;;;3.83;1.40;;;;;;;;;;4994542;28;49404;-77
2021/05/18 11:45:07;;;;;;;3.03;1.13;;;;;;;;;;4970332;28;38382;-77
2021/05/18 11:47:34;;;;;;;4.30;1.08;;;;;;;;;;4970702;28;40059;-77
2021/05/18 11:50:00;;;;;;;2.80;1.20;;;;;;;;;;5004525;28;36835;-77
2021/05/18 11:52:34;;;;;;;6.80;1.30;;;;;;;;;;4983150;28;39862;-76
2021/05/18 11:55:01;;;;;;;2.45;0.90;;;;;;;;;;4998522;28;39717;-77
2021/05/18 11:57:27;;;;;;;4.15;0.70;;;;;;;;;;4974808;28;39419;-77
2021/05/18 11:59:53;;;;;;;5.70;0.75;;;;;;;;;;4978070;28;35791;-77
2021/05/18 12:02:21;;;;;;;1.98;0.65;;;;;;;;;;4996166;28;38639;-77
2021/05/18 12:04:49;;;;;;;15.02;1.70;;;;;;;;;;5002605;28;39214;-77
2021/05/18 12:07:16;;;;;;;2.33;0.82;;;;;;;;;;4974198;28;37852;-77
2021/05/18 12:09:44;;;;;;;3.83;1.20;;;;;;;;;;4989592;28;36762;-78
2021/05/18 12:12:15;;;;;;;3.35;1.45;;;;;;;;;;4984048;28;37729;-77
2021/05/18 12:14:48;;;;;;;3.95;1.80;;;;;;;;;;4979961;28;39966;-78
2021/05/18 12:17:24;;;;;;;2.88;1.15;;;;;;;;;;4997829;28;38506;-79
2021/05/18 12:19:50;;;;;;;5.07;1.70;;;;;;;;;;5004717;28;36438;-79
2021/05/18 12:22:16;;;;;;;8.00;1.83;;;;;;;;;;4972463;28;39642;-79
2021/05/18 12:24:43;;;;;;;5.75;2.28;;;;;;;;;;4999922;28;38832;-78
2021/05/18 12:27:11;;;;;;;2.30;1.00;;;;;;;;;;4980381;28;38761;-78
2021/05/18 12:29:40;;;;;;;5.90;1.63;;;;;;;;;;4985878;28;36688;-78
2021/05/18 12:32:13;;;;;;;1.92;0.98;;;;;;;;;;4979354;28;38414;-79
2021/05/18 12:34:39;;;;;;;6.47;1.60;;;;;;;;;;4992294;28;39069;-79
2021/05/18 12:37:06;;;;;;;5.43;1.48;;;;;;;;;;5002668;28;39286;-78
2021/05/18 12:39:33;;;;;;;5.95;1.20;;;;;;;;;;5002521;28;37808;-79
2021/05/18 12:42:00;;;;;;;4.28;1.50;;;;;;;;;;4979448;28;37743;-78
2021/05/18 12:44:28;;;;;;;3.35;1.45;;;;;;;;;;4979394;28;38913;-78
2021/05/18 12:46:58;;;;;;;2.92;1.15;;;;;;;;;;5006948;28;37903;-78
2021/05/18 12:49:24;;;;;;;1.58;0.68;;;;;;;;;;5004401;28;37442;-77
2021/05/18 12:52:05;;;;;;;3.30;1.30;;;;;;;;;;4983724;28;40456;-78
2021/05/18 12:54:41;;;;;;;3.65;1.45;;;;;;;;;;4989194;28;47335;-78
2021/05/18 12:57:08;;;;;;;5.22;1.20;;;;;;;;;;5006454;28;39517;-78
2021/05/18 12:59:35;;;;;;;4.88;1.38;;;;;;;;;;5008105;28;36702;-79
2021/05/18 13:02:01;;;;;;;3.13;1.25;;;;;;;;;;4984357;28;39635;-78
2021/05/18 13:04:35;;;;;;;3.80;1.30;;;;;;;;;;4998929;28;49138;-78
2021/05/18 13:07:12;;;;;;;3.95;1.10;;;;;;;;;;4994689;28;39332;-78
2021/05/18 13:09:39;;;;;;;2.05;1.27;;;;;;;;;;5005593;28;37201;-77
2021/05/18 13:12:12;;;;;;;4.53;1.30;;;;;;;;;;4988299;28;39830;-79
2021/05/18 13:14:58;;;;;;;2.30;1.10;;;;;;;;;;4988386;28;40479;-78
2021/05/18 13:17:25;;;;;;;4.13;1.38;;;;;;;;;;4988038;28;39324;-78
2021/05/18 13:19:57;;;;;;;2.38;1.10;;;;;;;;;;5006435;28;37208;-78
2021/05/18 13:22:26;;;;;;;7.20;1.50;;;;;;;;;;4986629;28;40785;-79
2021/05/18 13:27:37;;;;;;;3.72;1.15;;;;;;;;;;5009593;28;49327;-78
2021/05/18 13:30:04;;;;;;;3.25;1.02;;;;;;;;;;5007984;28;37436;-78
2021/05/18 13:32:30;;;;;;;4.68;1.10;;;;;;;;;;5006959;28;39017;-78
2021/05/18 13:34:57;;;;;;;3.05;1.02;;;;;;;;;;4984927;28;40055;-78
2021/05/18 13:37:23;;;;;;;2.38;0.90;;;;;;;;;;4999455;28;39583;-78
2021/05/18 13:39:50;;;;;;;2.72;1.00;;;;;;;;;;4983268;28;36967;-79
2021/05/18 13:42:16;;;;;;;3.88;1.30;;;;;;;;;;5010544;28;38683;-78
2021/05/18 13:44:43;;;;;;;2.75;1.10;;;;;;;;;;4985611;28;40874;-78
2021/05/18 13:47:09;;;;;;;3.00;1.20;;;;;;;;;;4986746;28;38435;-78
2021/05/18 13:49:36;;;;;;;2.85;1.15;;;;;;;;;;4982587;28;37141;-78
2021/05/18 13:52:02;;;;;;;4.60;1.33;;;;;;;;;;4984748;28;39138;-77
2021/05/18 13:54:29;;;;;;;2.80;1.17;;;;;;;;;;4987447;28;39571;-78
2021/05/18 13:56:55;;;;;;;3.25;1.67;;;;;;;;;;4982811;28;37285;-78
2021/05/18 13:59:21;;;;;;;2.97;1.27;;;;;;;;;;5004736;28;36702;-77
2021/05/18 14:01:48;;;;;;;3.67;1.20;;;;;;;;;;4982667;28;39640;-78
2021/05/18 14:04:14;;;;;;;2.22;1.10;;;;;;;;;;5004723;28;40080;-76
2021/05/18 14:07:01;;;;;;;2.85;1.20;;;;;;;;;;4987890;28;39236;-76
2021/05/18 14:09:28;;;;;;;3.78;1.42;;;;;;;;;;4977878;28;48738;-76
2021/05/18 14:11:54;;;;;;;3.67;1.20;;;;;;;;;;4984730;28;39599;-77
2021/05/18 14:14:21;;;;;;;2.72;0.98;;;;;;;;;;4991699;28;37773;-77
2021/05/18 14:16:47;;;;;;;3.20;1.30;;;;;;;;;;4982570;28;37497;-76
2021/05/18 14:19:13;;;;;;;2.08;1.05;;;;;;;;;;4987527;28;36518;-77
2021/05/18 14:21:40;;;;;;;2.00;0.90;;;;;;;;;;4982761;28;37990;-77
2021/05/18 14:24:14;;;;;;;4.53;1.73;;;;;;;;;;4986632;28;37822;-78
2021/05/18 14:26:40;;;;;;;3.30;1.00;;;;;;;;;;4982946;28;37866;-77
2021/05/18 14:29:07;;;;;;;4.32;1.27;;;;;;;;;;4984239;28;37252;-78
2021/05/18 14:31:34;;;;;;;3.80;1.27;;;;;;;;;;4988363;28;37850;-78
2021/05/18 14:34:01;;;;;;;3.13;1.08;;;;;;;;;;4985067;28;37957;-78
2021/05/18 14:36:27;;;;;;;1.55;1.02;;;;;;;;;;5013140;28;38891;-77
2021/05/18 14:38:54;;;;;;;4.10;1.55;;;;;;;;;;4991333;28;36029;-78
2021/05/18 14:44:03;;;;;;;4.55;1.60;;;;;;;;;;4998725;28;39747;-77
2021/05/18 14:46:37;;;;;;;3.58;0.95;;;;;;;;;;4999059;28;48689;-78
2021/05/18 14:57:02;;;;;;;2.35;1.25;;;;;;;;;;5000425;28;39262;-76
2021/05/18 14:59:28;;;;;;;3.72;1.92;;;;;;;;;;4980821;28;36045;-78
2021/05/18 15:01:55;;;;;;;3.25;1.38;;;;;;;;;;5004155;28;39007;-77
2021/05/18 15:04:21;;;;;;;2.70;1.00;;;;;;;;;;4981741;28;38065;-77
2021/05/18 15:06:47;;;;;;;4.07;1.30;;;;;;;;;;4984422;28;38370;-77
2021/05/18 15:09:14;;;;;;;2.45;1.05;;;;;;;;;;4981308;28;35638;-77
2021/05/18 15:11:42;;;;;;;2.17;0.75;;;;;;;;;;4983923;28;39415;-77
2021/05/18 15:14:09;;;;;;;3.28;1.10;;;;;;;;;;4982556;28;39345;-78
2021/05/18 15:16:35;;;;;;;5.32;1.20;;;;;;;;;;4983655;28;40085;-77
2021/05/18 15:19:08;;;;;;;2.80;1.00;;;;;;;;;;4983594;28;36720;-77
2021/05/18 15:21:35;;;;;;;3.33;1.05;;;;;;;;;;4998608;28;47537;-78
2021/05/18 15:24:02;;;;;;;4.30;1.05;;;;;;;;;;5003678;28;40858;-78
2021/05/18 15:26:29;;;;;;;2.88;1.02;;;;;;;;;;4999691;28;48778;-77
2021/05/18 15:28:55;;;;;;;3.67;1.23;;;;;;;;;;4984919;28;35327;-78
2021/05/18 15:31:22;;;;;;;4.15;1.20;;;;;;;;;;4997135;28;38929;-78
2021/05/18 15:33:48;;;;;;;5.93;1.23;;;;;;;;;;4983913;28;40208;-77
2021/05/18 15:36:15;;;;;;;3.42;0.88;;;;;;;;;;4982750;28;39351;-78
2021/05/18 15:38:47;;;;;;;1.98;0.60;;;;;;;;;;4976633;28;40318;-78
2021/05/18 15:41:14;;;;;;;2.97;0.85;;;;;;;;;;4974406;28;39762;-78
2021/05/18 15:43:41;;;;;;;1.38;0.75;;;;;;;;;;4982194;28;38520;-77
2021/05/18 15:46:07;;;;;;;2.33;0.80;;;;;;;;;;4978751;28;38541;-78
2021/05/18 15:48:34;;;;;;;2.72;0.80;;;;;;;;;;4971401;28;38000;-78
2021/05/18 15:51:01;;;;;;;0.98;0.75;;;;;;;;;;4977593;28;40766;-77
2021/05/18 15:53:27;;;;;;;3.72;0.80;;;;;;;;;;4994434;28;47380;-77
2021/05/18 15:55:54;;;;;;;1.98;0.70;;;;;;;;;;5001196;28;38932;-78
2021/05/18 15:58:20;;;;;;;3.78;0.70;;;;;;;;;;5005724;28;37357;-78
2021/05/18 16:00:48;;;;;;;2.38;0.52;;;;;;;;;;4997107;28;39809;-77
2021/05/18 16:03:17;;;;;;;2.55;0.60;;;;;;;;;;4977866;28;39557;-77
2021/05/18 16:05:44;;;;;;;1.98;0.50;;;;;;;;;;4975987;28;39039;-77
2021/05/18 16:10:55;;;;;;;1.92;0.70;;;;;;;;;;4998014;28;40168;-78
2021/05/18 16:13:22;;;;;;;1.77;0.70;;;;;;;;;;5002025;28;37029;-78
2021/05/18 16:15:48;;;;;;;1.67;0.52;;;;;;;;;;4984959;28;35468;-78
2021/05/18 16:18:15;;;;;;;1.80;0.55;;;;;;;;;;4975806;28;40252;-78
2021/05/18 16:20:41;;;;;;;0.82;0.57;;;;;;;;;;4987967;28;38854;-77
2021/05/18 16:23:08;;;;;;;1.25;0.50;;;;;;;;;;4990373;28;40335;-78
2021/05/18 16:25:35;;;;;;;3.13;0.80;;;;;;;;;;4980882;28;39127;-78
2021/05/18 16:28:01;;;;;;;3.63;0.70;;;;;;;;;;4981197;28;35280;-78
2021/05/18 16:30:28;;;;;;;3.53;0.90;;;;;;;;;;4994606;28;48820;-78
2021/05/18 16:32:54;;;;;;;1.33;0.50;;;;;;;;;;4986256;28;40212;-78
2021/05/18 16:35:21;;;;;;;1.75;0.47;;;;;;;;;;4978504;28;39806;-78
2021/05/18 16:37:47;;;;;;;6.50;0.80;;;;;;;;;;4983069;28;739794;-78
2021/05/18 16:40:14;;;;;;;2.40;0.60;;;;;;;;;;4986757;28;37542;-78
2021/05/18 16:42:41;;;;;;;3.67;0.80;;;;;;;;;;4981344;28;39224;-78
2021/05/18 16:45:08;;;;;;;1.40;0.68;;;;;;;;;;4981572;28;38350;-78
2021/05/18 16:47:34;;;;;;;2.15;0.75;;;;;;;;;;4977913;28;35872;-78
2021/05/18 16:50:01;;;;;;;2.45;0.50;;;;;;;;;;4997811;28;38762;-78
2021/05/18 16:52:27;;;;;;;1.65;0.25;;;;;;;;;;5000221;28;47271;-80
2021/05/18 16:54:54;;;;;;;3.92;0.70;;;;;;;;;;4981517;28;38450;-78
2021/05/18 16:57:20;;;;;;;2.47;0.63;;;;;;;;;;5006393;28;37937;-77
2021/05/18 16:59:46;;;;;;;1.42;0.50;;;;;;;;;;5006542;28;38459;-78
2021/05/18 17:02:13;;;;;;;2.17;0.47;;;;;;;;;;5007894;28;39454;-78
2021/05/18 17:04:39;;;;;;;0.88;0.30;;;;;;;;;;5009414;28;38476;-78
2021/05/18 17:07:06;;;;;;;2.47;0.57;;;;;;;;;;5005395;28;36633;-78
2021/05/18 17:09:32;;;;;;;1.40;0.60;;;;;;;;;;5008777;28;39120;-79
2021/05/18 17:12:01;;;;;;;1.90;0.40;;;;;;;;;;4982301;28;38429;-78
2021/05/18 17:14:27;;;;;;;3.92;0.80;;;;;;;;;;5001907;28;47749;-78
2021/05/18 17:16:55;;;;;;;0.50;0.40;;;;;;;;;;5004826;28;37776;-78
2021/05/18 17:19:23;;;;;;;3.65;0.80;;;;;;;;;;5006524;28;39402;-77
2021/05/18 17:21:49;;;;;;;3.50;0.73;;;;;;;;;;4998357;28;38321;-77
2021/05/18 17:24:15;;;;;;;3.17;0.50;;;;;;;;;;5001035;28;38903;-77
2021/05/18 17:26:42;;;;;;;1.40;0.40;;;;;;;;;;4998399;28;38098;-79
2021/05/18 17:29:10;;;;;;;1.73;0.50;;;;;;;;;;5004562;28;38976;-77
2021/05/18 17:31:36;;;;;;;1.85;0.50;;;;;;;;;;4985329;28;42031;-77
2021/05/18 17:34:03;;;;;;;2.13;0.30;;;;;;;;;;5009650;28;38491;-76
2021/05/18 17:36:29;;;;;;;0.55;0.30;;;;;;;;;;4999498;28;39365;-76
2021/05/18 17:38:56;;;;;;;1.55;0.57;;;;;;;;;;5006342;28;39757;-77
2021/05/18 17:41:23;;;;;;;1.05;0.57;;;;;;;;;;4997840;28;37217;-78
2021/05/18 17:43:50;;;;;;;2.22;0.70;;;;;;;;;;4988612;28;41584;-78
2021/05/18 17:46:16;;;;;;;1.75;0.55;;;;;;;;;;4978180;28;37791;-77
2021/05/18 17:48:43;;;;;;;1.95;0.75;;;;;;;;;;5017939;28;39101;-78
2021/05/18 17:51:10;;;;;;;3.22;0.70;;;;;;;;;;4983140;28;39403;-78
2021/05/18 17:53:36;;;;;;;2.33;0.70;;;;;;;;;;5003921;28;39518;-78
2021/05/18 17:56:02;;;;;;;2.25;0.70;;;;;;;;;;5001563;28;37710;-78
2021/05/18 17:58:29;;;;;;;2.78;0.60;;;;;;;;;;5008246;28;39126;-78
2021/05/18 18:00:56;;;;;;;2.33;1.05;;;;;;;;;;4982702;28;40120;-78
2021/05/18 18:03:22;;;;;;;2.53;0.80;;;;;;;;;;5005420;28;38918;-78
2021/05/18 18:05:49;;;;;;;1.60;0.80;;;;;;;;;;4988208;28;36086;-78
2021/05/18 18:08:17;;;;;;;2.10;0.70;;;;;;;;;;4987373;28;40282;-79
2021/05/18 18:10:48;;;;;;;2.70;0.80;;;;;;;;;;5005023;28;39098;-78
2021/05/18 18:13:15;;;;;;;3.85;1.38;;;;;;;;;;4993207;28;39570;-78
2021/05/18 18:15:41;;;;;;;3.00;0.70;;;;;;;;;;4986607;28;38715;-78
2021/05/18 18:18:07;;;;;;;2.47;0.77;;;;;;;;;;4975903;28;40962;-78
2021/05/18 18:20:34;;;;;;;3.55;0.80;;;;;;;;;;4984692;28;40717;-77
2021/05/18 18:23:00;;;;;;;2.72;0.68;;;;;;;;;;5008258;28;38171;-78
2021/05/18 18:25:27;;;;;;;2.95;1.10;;;;;;;;;;4987014;28;37565;-76
2021/05/18 18:27:53;;;;;;;0.95;0.50;;;;;;;;;;5009150;28;38905;-78
2021/05/18 18:30:20;;;;;;;3.08;0.50;;;;;;;;;;4988360;28;39186;-79
2021/05/18 18:32:46;;;;;;;2.15;0.68;;;;;;;;;;4985827;28;39009;-78
2021/05/18 18:35:13;;;;;;;1.23;0.60;;;;;;;;;;5008970;28;37158;-78
2021/05/18 18:37:42;;;;;;;3.00;1.10;;;;;;;;;;5004063;28;39081;-78
2021/05/18 18:40:09;;;;;;;3.05;1.00;;;;;;;;;;5009977;28;40258;-79
2021/05/18 18:42:36;;;;;;;1.38;0.80;;;;;;;;;;5006049;28;38304;-79
2021/05/18 18:45:04;;;;;;;2.47;0.93;;;;;;;;;;4991895;28;35272;-78
2021/05/18 18:47:30;;;;;;;2.95;1.30;;;;;;;;;;4988585;28;40937;-79
2021/05/18 18:49:59;;;;;;;3.10;1.10;;;;;;;;;;4989096;28;40575;-78
2021/05/18 18:55:12;;;;;;;1.40;0.90;;;;;;;;;;5018060;28;38577;-78
2021/05/18 18:57:39;;;;;;;1.33;0.98;;;;;;;;;;4991344;28;39739;-78
2021/05/18 19:00:17;;;;;;;3.50;0.90;;;;;;;;;;5003606;28;38584;-77
2021/05/18 19:05:23;;;;;;;1.63;1.00;;;;;;;;;;5003541;28;36934;-78
2021/05/18 19:08:04;;;;;;;2.40;0.85;;;;;;;;;;4985837;28;40716;-78
2021/05/18 19:13:33;;;;;;;5.20;1.50;;;;;;;;;;4932542;28;49211;-79
2021/05/18 19:15:59;;;;;;;1.90;1.10;;;;;;;;;;4976085;28;35748;-78
2021/05/18 19:18:26;;;;;;;2.92;1.13;;;;;;;;;;4983724;28;39622;-78
2021/05/18 19:20:52;;;;;;;1.75;0.85;;;;;;;;;;5014018;28;39802;-78
2021/05/18 19:23:19;;;;;;;5.80;0.90;;;;;;;;;;4992279;28;39179;-78
2021/05/18 19:25:45;;;;;;;2.92;0.90;;;;;;;;;;4980403;28;37238;-79
2021/05/18 19:28:14;;;;;;;3.15;1.15;;;;;;;;;;4997737;28;38528;-78
2021/05/18 19:30:42;;;;;;;5.40;1.65;;;;;;;;;;4981365;28;39743;-78
2021/05/18 19:33:11;;;;;;;2.08;1.13;;;;;;;;;;5005987;28;38892;-78
2021/05/18 19:49:14;;;;;;;1.88;1.40;;;;;;;;;;5002051;28;39968;-79
2021/05/18 19:51:37;;;;;;;4.55;1.58;;;;;;;;;;5004187;28;48548;-79
2021/05/18 19:54:10;;;;;;;2.20;1.52;;;;;;;;;;4983368;28;37508;-79
2021/05/18 20:21:07;;;;;;;4.20;2.20;;;;;;;;;;5004003;28;39266;-77
2021/05/18 20:23:33;;;;;;;3.03;1.98;;;;;;;;;;4985356;28;47206;-77